WEATHER DATA

YESTERDAY
Time Temp. Dewp. Hum. Bar. 1h Prec. 24h Prec.
00:01 21.7 15.5 68 1008.7 0.0000 0.0000
00:12 21.5 15.6 69 1008.7 0.0000 0.0000
00:22 21.3 15.4 69 1008.7 0.0000 0.0000
00:31 21.1 15.4 70 1008.8 0.0000 0.0000
00:42 21 15.3 70 1008.6 0.0000 0.0000
00:52 20.9 15.7 72 1008.7 0.0000 0.0000
01:02 20.7 15.5 72 1008.9 0.0000 0.0000
01:11 20.6 15.2 71 1008.8 0.0000 0.0000
01:22 20.6 14.9 70 1008.9 0.0000 0.0000
01:32 20.6 14.9 70 1008.8 0.0000 0.0000
01:42 20.6 14.9 70 1008.3 0.0000 0.0000
01:53 20.6 14.9 70 1008.9 0.0000 0.0000
02:02 20.6 14.9 70 1008.4 0.0000 0.0000
02:12 20.6 14.9 70 1008.4 0.0000 0.0000
02:22 20.5 15.1 71 1008.6 0.0000 0.0000
02:33 20.5 15.3 72 1008.7 0.0000 0.0000
02:43 20.4 15.2 72 1008.6 0.0000 0.0000
02:52 20.2 15 72 1008.8 0.0000 0.0000
03:03 20 14.8 72 1008.7 0.0000 0.0000
03:13 19.8 14.4 71 1008.6 0.0000 0.0000
03:23 19.6 14.4 72 1008.9 0.0000 0.0000
03:32 19.4 14.7 74 1008.9 0.0000 0.0000
03:43 19.3 14.3 73 1008.8 0.0000 0.0000
03:53 19.2 14.5 74 1008.8 0.0000 0.0000
04:03 19 14.5 75 1008.8 0.0000 0.0000
04:13 19 14.3 74 1009 0.0000 0.0000
04:23 19 14.1 73 1009.2 0.0000 0.0000
04:33 19.1 13.9 72 1009.1 0.0000 0.0000
04:43 19.2 14 72 1009.2 0.0000 0.0000
04:54 19.3 14.3 73 1009.4 0.0000 0.0000
05:03 19.3 14.6 74 1009.5 0.0000 0.0000
05:13 19.3 14.8 75 1008.9 0.0000 0.0000
05:24 19.2 14.2 73 1009.2 0.0000 0.0000
05:34 19 14.3 74 1009.2 0.0000 0.0000
05:44 18.8 14.1 74 1008.9 0.0000 0.0000
05:53 18.7 14.2 75 1009.2 0.0000 0.0000
06:04 18.6 14.1 75 1009.1 0.0000 0.0000
06:14 18.5 14.2 76 1009.5 0.0000 0.0000
06:24 18.5 14.2 76 1009.6 0.0000 0.0000
06:34 18.6 14.3 76 1009.8 0.0000 0.0000
06:44 18.8 14.5 76 1009.9 0.0000 0.0000
06:54 19.1 14.8 76 1009.6 0.0000 0.0000
07:04 19.5 15 75 1010.2 0.0000 0.0000
07:15 19.8 15 74 1010 0.0000 0.0000
07:24 20 15.2 74 1010.1 0.0000 0.0000
07:34 20.2 15.2 73 1010.1 0.0000 0.0000
07:45 20.4 15.6 74 1010.2 0.0000 0.0000
07:55 20.8 16 74 1010.3 0.0000 0.0000
08:04 21.1 16.1 73 1010.3 0.0000 0.0000
08:14 21.8 16.3 71 1010.4 0.0000 0.0000
08:25 25.2 18.4 66 1010.5 0.0000 0.0000
08:35 26.9 18.7 61 1010.4 0.0000 0.0000
08:45 26.3 17.7 59 1010.6 0.0000 0.0000
08:55 26.2 17.6 59 1010.8 0.0000 0.0000
09:05 26 17.4 59 1010.7 0.0000 0.0000
09:15 26.1 18 61 1010.2 0.0000 0.0000
09:25 26.1 18 61 1010.3 0.0000 0.0000
09:35 26.1 18.3 62 1010.9 0.0000 0.0000
09:45 26.2 18.3 62 1010.9 0.0000 0.0000
09:55 26.3 18.2 61 1010.4 0.0000 0.0000
10:05 26.3 18.2 61 1011.2 0.0000 0.0000
10:16 26.7 18.6 61 1011.1 0.0000 0.0000
10:25 26.8 18.4 60 1011.2 0.0000 0.0000
10:35 26.7 18.3 60 1011.3 0.0000 0.0000
10:46 26.8 18.1 59 1011.4 0.0000 0.0000
10:56 27.1 18.4 59 1011.3 0.0000 0.0000
11:16 27.6 18 56 1011.5 0.0000 0.0000
11:26 27.5 18.2 57 1011.4 0.0000 0.0000
11:36 27.4 18.1 57 1011.4 0.0000 0.0000
11:46 27.7 18.1 56 1011.4 0.0000 0.0000
11:56 27.4 17.9 56 1011.3 0.0000 0.0000
12:06 27.3 17.5 55 1011.4 0.0000 0.0000
12:16 27.9 17.7 54 1011.3 0.0000 0.0000
12:26 28.4 17.9 53 1011.3 0.0000 0.0000
12:37 28.7 17.9 52 1011.3 0.0000 0.0000
12:46 28.8 18.6 54 1010.7 0.0000 0.0000
13:07 29.7 18.8 52 1011.4 0.0000 0.0000
13:17 30.1 19.2 52 1011.4 0.0000 0.0000
13:26 30.4 19.1 51 1011.4 0.0000 0.0000
13:37 30.9 18.9 49 1011.5 0.0000 0.0000
13:47 31.2 19.9 51 1011.6 0.0000 0.0000
13:57 30.8 19.8 52 1011.4 0.0000 0.0000
14:06 29.9 19.3 53 1011.7 0.0000 0.0000
14:17 29.4 19.1 54 1011.8 0.0000 0.0000
14:27 29.1 19.1 55 1011.9 0.0000 0.0000
14:37 29 19 55 1011.3 0.0000 0.0000
14:47 28.9 19 55 1011.7 0.0000 0.0000
14:57 28.9 19 55 1011.8 0.0000 0.0000
15:07 29.1 19.1 55 1011.7 0.0000 0.0000
15:17 29.7 18.8 52 1011.6 0.0000 0.0000
15:28 30 18.4 50 1011.5 0.0000 0.0000
15:37 30.1 18.5 50 1011.6 0.0000 0.0000
15:47 30.2 18.3 49 1011.1 0.0000 0.0000
15:57 29.7 17.9 49 1010.8 0.0000 0.0000
16:08 29 17.5 50 1011.3 0.0000 0.0000
16:18 28.5 17.7 52 1011.3 0.0000 0.0000
16:27 28.2 17.7 53 1011.4 0.0000 0.0000
16:38 28.1 17.9 54 1011.2 0.0000 0.0000
16:48 28.4 17.9 53 1010.6 0.0000 0.0000
16:58 28.5 17.7 52 1011.3 0.0000 0.0000
17:08 28.7 17.9 52 1011.3 0.0000 0.0000
17:18 28.9 18.1 52 1011.1 0.0000 0.0000
17:28 29 17.8 51 1010.7 0.0000 0.0000
17:38 29.1 18.2 52 1011.2 0.0000 0.0000
17:49 29 17.8 51 1011.2 0.0000 0.0000
17:58 29 17.8 51 1011.2 0.0000 0.0000
18:08 28.8 18 52 1011.1 0.0000 0.0000
18:18 28.8 18 52 1011.3 0.0000 0.0000
18:29 28.6 18.1 53 1011.1 0.0000 0.0000
18:39 28.4 17.6 52 1011.1 0.0000 0.0000
18:48 28.2 17.7 53 1011.3 0.0000 0.0000
18:59 27.9 18 55 1011.3 0.0000 0.0000
19:09 27.7 17.8 55 1011.3 0.0000 0.0000
19:19 27.5 17.9 56 1011.1 0.0000 0.0000
19:29 27.2 17.4 55 1011.4 0.0000 0.0000
19:39 26.8 17 55 1011.4 0.0000 0.0000
19:49 26.4 16.9 56 1011.1 0.0000 0.0000
19:59 26 16.5 56 1011.7 0.0000 0.0000
20:10 25.6 16.5 57 1011.8 0.0000 0.0000
20:19 25.3 16.2 57 1011.7 0.0000 0.0000
20:29 25 15.9 57 1011.9 0.0000 0.0000
20:39 24.7 16.2 59 1011.7 0.0000 0.0000
20:50 24.4 16.4 61 1011.8 0.0000 0.0000
21:00 24.2 16.2 61 1012.2 0.0000 0.0000
21:09 24 16 61 1012.3 0.0000 0.0000
21:20 23.8 16.1 62 1012.4 0.0000 0.0000
21:30 23.6 15.9 62 1012.6 0.0000 0.0000
21:40 23.5 16.1 63 1012.5 0.0000 0.0000
21:50 23.2 16 64 1012.7 0.0000 0.0000
22:00 23 15.6 63 1012.1 0.0000 0.0000
22:10 23 15.6 63 1012 0.0000 0.0000
22:25 22.9 15.5 63 1012.1 0.0000 0.0000
22:36 22.7 15.5 64 1012.7 0.0000 0.0000
22:45 22.6 15.5 64 1012.6 0.0000 0.0000
22:55 22.4 15.5 65 1012.7 0.0000 0.0000
23:06 22.4 15.5 65 1012.7 0.0000 0.0000
23:16 22.4 15.5 65 1012.3 0.0000 0.0000
23:26 22.5 15.4 64 1012.7 0.0000 0.0000
23:35 22.6 15.7 65 1012.9 0.0000 0.0000
23:45 22.4 15.7 66 1012.9 0.0000 0.0000
23:55 22.2 15.6 66 1013 0.0000 0.0000

DAY STATISTIC

2022-08-16
TEMPERATURE
AVERAGE
24.5
HIGH
31.2
13:47
LOW
18.5
06:14
PRESSURE
AVERAGE
1010.7
HIGH
1013.0
23:55
LOW
1008.3
01:42
DEWPOINT
AVERAGE
16.6
HIGH
19.9
13:47
LOW
13.9
04:33
HUMIDITY
AVERAGE
62
HIGH
76
06:14
LOW
49
13:37
PRECIPITATION
RAIN HOUR
0.0
RAIN DAY
0.0
TEMPERATURE (°C)
LOW
18.5
HIGH
31.2
AVERAGE
24.5
PRESSURE (hpa)
LOW
1008.3
HIGH
1013.0
AVERAGE
1010.7
DEVICE